Boston, MA

5:59 AM EDT on October 25, 2014 (GMT -0400)
South Boston | Change Station
CLOSE
Current Station
Personal Weather Station
Location: Boston, MA
Elevation: 33 ft
Nearby Weather Stations

Elev 33 ft 42.34 °N, 71.06 °W | Updated 5 minutes ago

Clear
Clear
48.8 °F
Feels Like 47 °F
N
5.0
Wind Variable Wind from SW
Gusts 13.0 mph

Today
High -- | Low -- °F
--% Chance of Precip.
Yesterday
High -- | Low -- °F
Precip. -- in
7:08 AM 5:46 PM
New Moon, 2% visible
Pressure 29.75 in
Visibility 10.0 miles
Clouds Clear
Windchill 47 °F
Dew Point 42 °F
Humidity 77%
Rainfall 0.00 in
Snow Depth Not available.
UV 0 out of 12
Pollen .30 out of 12
Ozone Good
PM2.5 Good
Flu Activity Sporadic
METAR KBOS 250954Z 27007KT 10SM CLR 09/04 A2975 RMK AO2 SLP073 T00890044

More Conditions Fewer Conditions

Pressure 29.75 in
Visibility 10.0 miles
Clouds Clear
Windchill 47 °F
Dew Point 42 °F
Humidity 77%
Rainfall 0.00 in
Snow Depth Not available.
UV 0 out of 12
Pollen .30 out of 12
Ozone Good
PM2.5 Good
Flu Activity Sporadic
METAR KBOS 250954Z 27007KT 10SM CLR 09/04 A2975 RMK AO2 SLP073 T00890044

More Conditions Fewer Conditions

10-Day Weather Forecast

Almanac

Astronomy

Oct. 25, 2014 Rise Set
Actual Time 7:08 AM EDT 5:46 PM EDT
Civil Twilight 6:39 AM EDT 6:15 PM EDT
Nautical Twilight 6:07 AM EDT 6:48 PM EDT
Astronomical Twilight 5:34 AM EDT 7:21 PM EDT
Moon 8:46 AM EDT 7:05 PM EDT
Length of Visible Light 11h 35m
Length of Day
10h 38m
Tomorrow will be 2m 38s shorter.
New Moon, 2% of the Moon is Illuminated
Today
New Moon
Oct 30
First Quarter
Nov 6
Full
Nov 14
Last Quarter
Nov 22
New

Today's Extremes

State Highs State Lows

Community

WunderPhotos

Upload Photos

1,764,796 photos uploaded!

Nearby

Air Quality

  Air Quality AQ Index Pollutant
Yesterday Good
OZONE
Yesterday Good
PM2.5
Current Good
PM2.5
Current Good
OZONE
Saturday Good
PM2.5
Saturday Good
OZONE

Snow Depth

Station Depth Elevation
No new snow has been reported.

Earthquake Activity

City Distance Mag. Time & Date
No recent earthquake activity has been reported nearby.
Minimum magnitude displayed is 2.5.

Coastal Water Temperatures

Place Temperature
Boston, MA 54.0 °F
Providence, RI 59.0 °F
Conimicut Light, RI 59.0 °F

Nearby Weather Stations